»·PEaware :: N375DS KABQ-KAMA

N375DS :: KABQ-KAMA

FLIGHT INFORMATION

Flight Status: Arrived
Operator: Privately registered:
United States
More flights under this callsign
Pilot: Mark H. (209)
Aircraft: BEECH AIRCRAFT BARON
(BE58)
More flights by this aircraft type
Origin: KABQ Albuquerque Intl Sunport
United States
Destination: KAMA Amarillo Intl
United States
More flights between these airports :: More routes between these airports
Route: +MNZNO3 TXO HRX
File this flight plan on PilotEdge
Remarks:
Altitude:
(Current/Filed)
9,000ft
Speed:
(Current/Filed)
150kts
Departed: 09-Jul-17 09:55 AM
Arrived: 09-Jul-17 11:26 AM
Distance/Time
Traveled:
241nm/1:31
Distance/Time
To Go:
Arrived

Flight Plot

Page will automatically refresh every two minutes.

Flight plan parsing failed; only flown route is shown


Map Options




Map Legend


Flown Route
Filed Route
Departure Airport
Arrival Airport
Navaid (VOR, NDB)
Fix

Horizontal Profiles

Position Reports

Time Latitude Longitude Heading Altitude Ground
Speed
09-Jul-17 09:51 35.036406 -106.616986 136 5358ft 0kts
09-Jul-17 09:52 35.036406 -106.616986 136 5358ft 0kts
09-Jul-17 09:53 35.036323 -106.616853 111 5358ft 9kts
09-Jul-17 09:54 35.038642 -106.616162 323 5358ft 19kts
09-Jul-17 09:55 35.042204 -106.620781 309 5358ft 24kts
09-Jul-17 09:56 35.043749 -106.621334 1 5358ft 0kts
09-Jul-17 09:57 35.044368 -106.620884 87 5358ft 18kts
09-Jul-17 09:58 35.044416 -106.590342 86 5657ft 122kts
09-Jul-17 09:59 35.039037 -106.551598 159 6633ft 132kts
09-Jul-17 10:00 35.002412 -106.535723 146 7384ft 145kts
09-Jul-17 10:01 34.971771 -106.510184 183 8073ft 146kts
09-Jul-17 10:02 34.931493 -106.513920 189 8779ft 142kts
09-Jul-17 10:03 34.889818 -106.516022 188 9007ft 162kts
09-Jul-17 10:04 34.842467 -106.517342 187 9001ft 174kts
09-Jul-17 10:05 34.805599 -106.513731 151 8994ft 189kts
09-Jul-17 10:06 34.794149 -106.451737 93 9000ft 199kts
09-Jul-17 10:07 34.789111 -106.388446 100 9563ft 176kts
09-Jul-17 10:08 34.782431 -106.329848 98 10043ft 174kts
09-Jul-17 10:09 34.775528 -106.271578 99 10538ft 172kts
09-Jul-17 10:10 34.768660 -106.214312 99 10986ft 172kts
09-Jul-17 10:11 34.761248 -106.153291 99 11003ft 189kts
09-Jul-17 10:12 34.756353 -106.088407 92 11000ft 194kts
09-Jul-17 10:13 34.754191 -106.025282 92 11000ft 195kts
09-Jul-17 10:14 34.752080 -105.959231 92 11000ft 195kts
09-Jul-17 10:15 34.750005 -105.894457 92 11000ft 195kts
09-Jul-17 10:16 34.747858 -105.828384 92 11000ft 195kts
09-Jul-17 10:17 34.745675 -105.762341 92 11000ft 195kts
09-Jul-17 10:18 34.743457 -105.696262 92 11000ft 195kts
09-Jul-17 10:19 34.741199 -105.630203 92 11000ft 195kts
09-Jul-17 10:20 34.739338 -105.576246 92 11000ft 195kts
09-Jul-17 10:21 34.737014 -105.510234 92 11000ft 195kts
09-Jul-17 10:22 34.734658 -105.444171 92 11000ft 195kts
09-Jul-17 10:23 34.732152 -105.375288 92 10993ft 202kts
09-Jul-17 10:24 34.729687 -105.308129 92 10999ft 197kts
09-Jul-17 10:25 34.727229 -105.241873 92 10999ft 196kts
09-Jul-17 10:26 34.724732 -105.175739 92 10999ft 195kts
09-Jul-17 10:27 34.722195 -105.109644 92 11000ft 195kts
09-Jul-17 10:28 34.719623 -105.043585 92 11000ft 195kts
09-Jul-17 10:29 34.717426 -104.987922 92 11000ft 195kts
09-Jul-17 10:30 34.715252 -104.933418 92 11000ft 195kts
09-Jul-17 10:31 34.713097 -104.880029 92 11000ft 195kts
09-Jul-17 10:32 34.711095 -104.830949 92 11000ft 195kts
09-Jul-17 10:33 34.709372 -104.789113 93 11000ft 195kts
09-Jul-17 10:34 34.707397 -104.741615 93 11000ft 195kts
09-Jul-17 10:35 34.704734 -104.678354 93 11000ft 195kts
09-Jul-17 10:36 34.702305 -104.630891 95 11000ft 195kts
09-Jul-17 10:37 34.696799 -104.574787 98 11000ft 195kts
09-Jul-17 10:38 34.691105 -104.521792 98 11000ft 195kts
09-Jul-17 10:39 34.684745 -104.463591 98 11000ft 195kts
09-Jul-17 10:40 34.677593 -104.398563 98 11001ft 194kts
09-Jul-17 10:41 34.670456 -104.334153 98 11000ft 195kts
09-Jul-17 10:42 34.663302 -104.269880 98 11000ft 195kts
09-Jul-17 10:43 34.656236 -104.206695 98 11000ft 195kts
09-Jul-17 10:44 34.649650 -104.148064 98 11000ft 195kts
09-Jul-17 10:45 34.642342 -104.083313 98 11000ft 195kts
09-Jul-17 10:46 34.635043 -104.018951 98 11000ft 195kts
09-Jul-17 10:47 34.628202 -103.958908 98 11000ft 195kts
09-Jul-17 10:48 34.621440 -103.899822 98 11000ft 195kts
09-Jul-17 10:49 34.615125 -103.844868 98 11000ft 195kts
09-Jul-17 10:50 34.607571 -103.779424 98 11000ft 195kts
09-Jul-17 10:51 34.599986 -103.714033 98 11000ft 195kts
09-Jul-17 10:52 34.592365 -103.648611 98 10999ft 195kts
09-Jul-17 10:53 34.584940 -103.583704 98 10999ft 195kts
09-Jul-17 10:54 34.577149 -103.518331 99 11000ft 195kts
09-Jul-17 10:55 34.569680 -103.455697 99 11000ft 195kts
09-Jul-17 10:56 34.563783 -103.406096 99 11000ft 196kts
09-Jul-17 10:57 34.556049 -103.341216 99 11000ft 196kts
09-Jul-17 10:58 34.548227 -103.275882 99 11000ft 196kts
09-Jul-17 10:59 34.540387 -103.210693 99 11000ft 196kts
09-Jul-17 11:00 34.532465 -103.145661 99 10999ft 194kts
09-Jul-17 11:01 34.524640 -103.080726 99 11000ft 195kts
09-Jul-17 11:02 34.516686 -103.015458 99 11000ft 196kts
09-Jul-17 11:03 34.508657 -102.949924 99 11000ft 196kts
09-Jul-17 11:04 34.500610 -102.884594 99 11000ft 196kts
09-Jul-17 11:05 34.508578 -102.822847 49 11003ft 191kts
09-Jul-17 11:06 34.541494 -102.773990 45 11000ft 190kts
09-Jul-17 11:07 34.575884 -102.725062 44 11000ft 190kts
09-Jul-17 11:08 34.610299 -102.676173 44 11000ft 190kts
09-Jul-17 11:09 34.644744 -102.627190 44 11000ft 190kts
09-Jul-17 11:10 34.679140 -102.578208 44 11000ft 190kts
09-Jul-17 11:11 34.711166 -102.532541 44 11000ft 190kts
09-Jul-17 11:12 34.745559 -102.483432 44 11000ft 190kts
09-Jul-17 11:13 34.779957 -102.434268 45 11040ft 194kts
09-Jul-17 11:14 34.815599 -102.383195 45 10997ft 193kts
09-Jul-17 11:15 34.850062 -102.333492 46 10999ft 191kts
09-Jul-17 11:16 34.881933 -102.281396 49 10999ft 192kts
09-Jul-17 11:17 34.913799 -102.227659 50 10693ft 205kts
09-Jul-17 11:18 34.948170 -102.169322 50 10027ft 215kts
09-Jul-17 11:19 34.978607 -102.117546 50 9445ft 218kts
09-Jul-17 11:20 35.011538 -102.061444 50 8814ft 214kts
09-Jul-17 11:21 35.045165 -102.004030 50 8131ft 205kts
09-Jul-17 11:22 35.070105 -101.942182 74 7462ft 207kts
09-Jul-17 11:23 35.092045 -101.877946 53 6804ft 202kts
09-Jul-17 11:24 35.126858 -101.829974 45 6106ft 170kts
09-Jul-17 11:25 35.157630 -101.791900 43 5345ft 136kts
09-Jul-17 11:26 35.178963 -101.765935 46 4590ft 105kts
09-Jul-17 11:27 35.199825 -101.739759 46 3832ft 96kts
09-Jul-17 11:28 35.217059 -101.717684 43 3614ft 76kts
09-Jul-17 11:29 35.224064 -101.707867 131 3610ft 15kts
09-Jul-17 11:30 35.223790 -101.707522 133 3610ft 0kts
09-Jul-17 11:31 35.220880 -101.703943 131 3610ft 28kts

Navigation Log

Ident Type
Flight plan parsing failed, navigation log unavailable